sensor_id;sensor_type;location;lat;lon;timestamp;P1;durP1;ratioP1;P2;durP2;ratioP2
28009;SDS011;15334;49.494;8.410;2022-09-11T18:53:33;9.45;;;5.13;;
28009;SDS011;15334;49.494;8.410;2022-09-11T18:56:02;10.55;;;4.88;;
28009;SDS011;15334;49.494;8.410;2022-09-11T18:58:33;9.23;;;5.15;;
28009;SDS011;15334;49.494;8.410;2022-09-11T19:01:04;8.50;;;4.88;;
28009;SDS011;15334;49.494;8.410;2022-09-11T19:03:33;11.02;;;5.35;;
28009;SDS011;15334;49.494;8.410;2022-09-11T19:06:05;8.20;;;4.57;;
28009;SDS011;15334;49.494;8.410;2022-09-11T19:08:37;10.07;;;4.80;;
28009;SDS011;15334;49.494;8.410;2022-09-11T19:11:09;7.07;;;4.53;;
28009;SDS011;15334;49.494;8.410;2022-09-11T19:13:39;8.15;;;4.78;;
28009;SDS011;15334;49.494;8.410;2022-09-11T19:16:08;8.80;;;4.47;;
28009;SDS011;15334;49.494;8.410;2022-09-11T19:18:37;7.55;;;4.55;;
28009;SDS011;15334;49.494;8.410;2022-09-11T19:21:06;9.38;;;4.82;;
28009;SDS011;15334;49.494;8.410;2022-09-11T19:23:39;6.63;;;4.20;;
28009;SDS011;15334;49.494;8.410;2022-09-11T19:26:11;8.02;;;5.05;;
28009;SDS011;15334;49.494;8.410;2022-09-11T19:28:40;7.80;;;4.45;;
28009;SDS011;15334;49.494;8.410;2022-09-11T19:31:10;9.13;;;4.65;;
28009;SDS011;15334;49.494;8.410;2022-09-11T19:33:40;8.88;;;5.20;;
28009;SDS011;15334;49.494;8.410;2022-09-11T19:36:12;9.30;;;5.45;;
28009;SDS011;15334;49.494;8.410;2022-09-11T19:38:45;9.60;;;5.30;;
28009;SDS011;15334;49.494;8.410;2022-09-11T19:41:17;9.95;;;5.57;;
28009;SDS011;15334;49.494;8.410;2022-09-11T19:43:46;8.20;;;4.93;;
28009;SDS011;15334;49.494;8.410;2022-09-11T19:46:15;8.60;;;5.05;;
28009;SDS011;15334;49.494;8.410;2022-09-11T19:48:44;9.63;;;5.63;;
28009;SDS011;15334;49.494;8.410;2022-09-11T19:51:14;9.23;;;5.05;;
28009;SDS011;15334;49.494;8.410;2022-09-11T19:53:48;10.52;;;5.95;;
28009;SDS011;15334;49.494;8.410;2022-09-11T19:56:17;10.73;;;5.25;;
28009;SDS011;15334;49.494;8.410;2022-09-11T19:58:45;9.02;;;4.85;;
28009;SDS011;15334;49.494;8.410;2022-09-11T20:01:14;10.73;;;5.80;;
28009;SDS011;15334;49.494;8.410;2022-09-11T20:03:44;9.05;;;5.43;;
28009;SDS011;15334;49.494;8.410;2022-09-11T20:06:20;10.35;;;6.03;;
28009;SDS011;15334;49.494;8.410;2022-09-11T20:08:52;11.50;;;6.57;;
28009;SDS011;15334;49.494;8.410;2022-09-11T20:11:40;13.38;;;6.85;;
28009;SDS011;15334;49.494;8.410;2022-09-11T20:14:09;14.00;;;8.27;;
28009;SDS011;15334;49.494;8.410;2022-09-11T20:16:37;14.70;;;7.75;;
28009;SDS011;15334;49.494;8.410;2022-09-11T20:19:08;13.15;;;6.38;;
28009;SDS011;15334;49.494;8.410;2022-09-11T20:21:38;10.60;;;5.35;;
28009;SDS011;15334;49.494;8.410;2022-09-11T20:24:07;12.70;;;7.25;;
28009;SDS011;15334;49.494;8.410;2022-09-11T20:26:36;14.10;;;6.82;;
28009;SDS011;15334;49.494;8.410;2022-09-11T20:29:05;11.07;;;7.32;;
28009;SDS011;15334;49.494;8.410;2022-09-11T20:31:35;14.75;;;6.65;;
28009;SDS011;15334;49.494;8.410;2022-09-11T20:34:13;13.95;;;7.70;;
28009;SDS011;15334;49.494;8.410;2022-09-11T20:36:43;14.07;;;7.38;;
28009;SDS011;15334;49.494;8.410;2022-09-11T20:39:14;12.05;;;7.50;;
28009;SDS011;15334;49.494;8.410;2022-09-11T20:41:44;12.23;;;7.60;;
28009;SDS011;15334;49.494;8.410;2022-09-11T20:44:12;12.50;;;7.35;;
28009;SDS011;15334;49.494;8.410;2022-09-11T20:46:40;12.68;;;7.18;;
28009;SDS011;15334;49.494;8.410;2022-09-11T20:49:12;13.93;;;7.32;;
28009;SDS011;15334;49.494;8.410;2022-09-11T20:51:40;12.65;;;7.47;;
28009;SDS011;15334;49.494;8.410;2022-09-11T20:54:08;13.40;;;7.68;;
28009;SDS011;15334;49.494;8.410;2022-09-11T20:56:38;12.73;;;7.93;;
28009;SDS011;15334;49.494;8.410;2022-09-11T20:59:06;11.07;;;6.72;;
28009;SDS011;15334;49.494;8.410;2022-09-11T21:01:34;12.27;;;6.80;;
28009;SDS011;15334;49.494;8.410;2022-09-11T21:04:03;11.23;;;7.63;;
28009;SDS011;15334;49.494;8.410;2022-09-11T21:06:33;12.65;;;6.57;;
28009;SDS011;15334;49.494;8.410;2022-09-11T21:09:05;11.98;;;6.68;;
28009;SDS011;15334;49.494;8.410;2022-09-11T21:11:35;12.75;;;6.47;;
28009;SDS011;15334;49.494;8.410;2022-09-11T21:14:05;11.95;;;6.88;;
28009;SDS011;15334;49.494;8.410;2022-09-11T21:16:33;11.52;;;6.57;;
28009;SDS011;15334;49.494;8.410;2022-09-11T21:19:04;13.10;;;6.78;;
28009;SDS011;15334;49.494;8.410;2022-09-11T21:21:33;10.20;;;5.93;;
28009;SDS011;15334;49.494;8.410;2022-09-11T21:24:04;12.60;;;7.07;;
28009;SDS011;15334;49.494;8.410;2022-09-11T21:26:35;12.57;;;6.63;;
28009;SDS011;15334;49.494;8.410;2022-09-11T21:29:04;11.50;;;6.50;;
28009;SDS011;15334;49.494;8.410;2022-09-11T21:31:35;10.98;;;6.53;;
28009;SDS011;15334;49.494;8.410;2022-09-11T21:34:03;12.20;;;7.22;;
28009;SDS011;15334;49.494;8.410;2022-09-11T21:36:31;11.00;;;6.80;;
28009;SDS011;15334;49.494;8.410;2022-09-11T21:38:59;11.20;;;6.40;;
28009;SDS011;15334;49.494;8.410;2022-09-11T21:41:28;12.65;;;6.93;;
28009;SDS011;15334;49.494;8.410;2022-09-11T21:43:56;12.15;;;6.75;;
28009;SDS011;15334;49.494;8.410;2022-09-11T21:46:26;14.93;;;7.28;;
28009;SDS011;15334;49.494;8.410;2022-09-11T21:48:54;12.75;;;7.10;;
28009;SDS011;15334;49.494;8.410;2022-09-11T21:51:22;15.05;;;7.38;;
28009;SDS011;15334;49.494;8.410;2022-09-11T21:53:53;11.50;;;6.43;;
28009;SDS011;15334;49.494;8.410;2022-09-11T21:56:24;10.90;;;6.45;;
28009;SDS011;15334;49.494;8.410;2022-09-11T21:58:56;13.02;;;7.07;;
28009;SDS011;15334;49.494;8.410;2022-09-11T22:01:26;11.77;;;6.80;;
28009;SDS011;15334;49.494;8.410;2022-09-11T22:03:55;13.95;;;7.80;;
28009;SDS011;15334;49.494;8.410;2022-09-11T22:06:25;13.70;;;8.07;;
28009;SDS011;15334;49.494;8.410;2022-09-11T22:08:53;14.32;;;7.45;;
28009;SDS011;15334;49.494;8.410;2022-09-11T22:11:22;11.35;;;6.85;;
28009;SDS011;15334;49.494;8.410;2022-09-11T22:13:51;13.82;;;7.18;;
28009;SDS011;15334;49.494;8.410;2022-09-11T22:16:19;12.90;;;7.30;;
28009;SDS011;15334;49.494;8.410;2022-09-11T22:18:50;12.80;;;6.68;;
28009;SDS011;15334;49.494;8.410;2022-09-11T22:21:19;13.77;;;6.93;;
28009;SDS011;15334;49.494;8.410;2022-09-11T22:23:47;14.63;;;8.45;;
28009;SDS011;15334;49.494;8.410;2022-09-11T22:26:16;12.85;;;7.53;;
28009;SDS011;15334;49.494;8.410;2022-09-11T22:28:46;13.95;;;7.60;;
28009;SDS011;15334;49.494;8.410;2022-09-11T22:31:16;12.60;;;7.25;;
28009;SDS011;15334;49.494;8.410;2022-09-11T22:33:46;13.55;;;7.28;;
28009;SDS011;15334;49.494;8.410;2022-09-11T22:36:16;12.90;;;7.30;;
28009;SDS011;15334;49.494;8.410;2022-09-11T22:38:46;12.30;;;6.80;;
28009;SDS011;15334;49.494;8.410;2022-09-11T22:41:14;14.73;;;8.13;;
28009;SDS011;15334;49.494;8.410;2022-09-11T22:43:45;13.85;;;7.43;;
28009;SDS011;15334;49.494;8.410;2022-09-11T22:46:15;10.80;;;6.90;;
28009;SDS011;15334;49.494;8.410;2022-09-11T22:48:44;13.13;;;7.25;;
